Collie Airport


Codes: YCOI/CIE
Name: Collie Airport
City: Collie
Country: Australia
Elevation: 818 ft.

Photos at Collie Airport


   Photos courtesy of SpottingLog. You can add your own sightings and photos by signing up for a free trial today.



No photos found.

Weather at Collie Airport


Time (UTC)DescriptionTempratureWindCloud coverageVisibilityPressureHumidity
17-Jun-2024 06:00Light Rain15°C7 mph, W92%10000m1020hPa64%
17-Jun-2024 09:00Broken Clouds13°C4 mph, W51%10000m1020hPa72%
17-Jun-2024 12:00Few Clouds9°C2 mph, SW17%10000m1022hPa95%
17-Jun-2024 15:00Few Clouds9°C2 mph, NW15%10000m1022hPa94%
17-Jun-2024 18:00Scattered Clouds10°C2 mph, NW50%10000m1021hPa85%
17-Jun-2024 21:00Clear Sky8°C4 mph, NW2%10000m1021hPa93%
18-Jun-2024 00:00Scattered Clouds10°C4 mph, NW46%10000m1022hPa86%
18-Jun-2024 03:00Light Rain13°C7 mph, SW80%10000m1023hPa84%
18-Jun-2024 06:00Light Rain15°C7 mph, SW86%10000m1022hPa57%
18-Jun-2024 09:00Clear Sky12°C7 mph, SW0%10000m1024hPa68%
18-Jun-2024 12:00Scattered Clouds11°C4 mph, SW46%10000m1026hPa79%
18-Jun-2024 15:00Overcast Clouds10°C4 mph, S90%10000m1028hPa82%
18-Jun-2024 18:00Broken Clouds7°C2 mph, S58%10000m1028hPa93%
18-Jun-2024 21:00Broken Clouds9°C2 mph, S79%10000m1028hPa76%
19-Jun-2024 00:00Broken Clouds7°C2 mph, S54%10000m1030hPa87%
19-Jun-2024 03:00Broken Clouds14°C7 mph, SE77%10000m1030hPa53%
19-Jun-2024 06:00Scattered Clouds15°C7 mph, SE46%10000m1028hPa49%
19-Jun-2024 09:00Clear Sky11°C4 mph, SE5%10000m1029hPa67%
19-Jun-2024 12:00Clear Sky8°C4 mph, SE0%10000m1031hPa82%
19-Jun-2024 15:00Clear Sky7°C2 mph, E0%10000m1031hPa85%
19-Jun-2024 18:00Clear Sky6°C2 mph, NE0%10000m1030hPa87%
19-Jun-2024 21:00Scattered Clouds6°C4 mph, NE35%10000m1030hPa88%
20-Jun-2024 00:00Scattered Clouds6°C2 mph, NE27%10000m1030hPa85%
20-Jun-2024 03:00Scattered Clouds14°C4 mph, NE34%10000m1029hPa51%
20-Jun-2024 06:00Scattered Clouds17°C4 mph, N34%10000m1026hPa41%
20-Jun-2024 09:00Overcast Clouds12°C4 mph, NE99%10000m1026hPa63%
20-Jun-2024 12:00Overcast Clouds9°C4 mph, NE100%10000m1027hPa76%
20-Jun-2024 15:00Overcast Clouds8°C4 mph, NE100%10000m1026hPa75%
20-Jun-2024 18:00Overcast Clouds9°C7 mph, NE100%10000m1024hPa70%
20-Jun-2024 21:00Overcast Clouds10°C9 mph, NE100%10000m1022hPa67%
21-Jun-2024 00:00Overcast Clouds10°C7 mph, N100%10000m1022hPa68%
21-Jun-2024 03:00Overcast Clouds16°C11 mph, N100%10000m1020hPa44%
21-Jun-2024 06:00Overcast Clouds17°C11 mph, NW100%10000m1017hPa41%
21-Jun-2024 09:00Overcast Clouds14°C9 mph, N100%10000m1017hPa54%
21-Jun-2024 12:00Overcast Clouds12°C7 mph, N91%10000m1016hPa63%
21-Jun-2024 15:00Few Clouds12°C9 mph, N13%10000m1015hPa72%
21-Jun-2024 18:00Light Rain13°C11 mph, N56%10000m1013hPa94%
21-Jun-2024 21:00Moderate Rain14°C9 mph, W95%3054m1011hPa97%
22-Jun-2024 00:00Light Rain13°C9 mph, W98%10000m1014hPa92%
22-Jun-2024 03:00Light Rain13°C11 mph, W95%10000m1015hPa82%